createdAt,value
2018-10-06T00:00:01.014Z,56.90
2018-10-06T00:01:06.215Z,56.90
2018-10-06T00:02:12.316Z,56.90
2018-10-06T00:03:17.668Z,56.90
2018-10-06T00:04:22.958Z,56.90
2018-10-06T00:05:29.091Z,57.00
2018-10-06T00:06:34.544Z,57.00
2018-10-06T00:07:39.876Z,57.00
2018-10-06T00:08:45.146Z,56.90
2018-10-06T00:09:50.456Z,56.90
2018-10-06T00:10:55.707Z,57.00
2018-10-06T00:12:01.153Z,57.10
2018-10-06T00:13:06.410Z,57.00
2018-10-06T00:14:11.658Z,57.00
2018-10-06T00:15:16.922Z,56.90
2018-10-06T00:16:23.021Z,57.00
2018-10-06T00:17:28.351Z,57.00
2018-10-06T00:18:33.626Z,56.90
2018-10-06T00:19:38.895Z,57.00
2018-10-06T00:20:44.246Z,57.00
2018-10-06T00:21:49.561Z,57.00
2018-10-06T00:22:54.856Z,56.90
2018-10-06T00:24:00.222Z,57.00
2018-10-06T00:25:06.312Z,57.00
2018-10-06T00:26:12.361Z,57.00
2018-10-06T00:27:17.523Z,57.00
2018-10-06T00:28:22.795Z,57.00
2018-10-06T00:29:28.901Z,57.70
2018-10-06T00:30:34.226Z,56.90
2018-10-06T00:31:39.503Z,57.10
2018-10-06T00:32:44.703Z,56.90
2018-10-06T00:33:50.815Z,57.10
2018-10-06T00:34:56.034Z,57.00
2018-10-06T00:36:01.373Z,57.00
2018-10-06T00:37:06.636Z,56.90
2018-10-06T00:38:12.644Z,57.00
2018-10-06T00:39:17.782Z,57.00
2018-10-06T00:40:23.097Z,56.90
2018-10-06T00:41:28.363Z,57.00
2018-10-06T00:42:33.640Z,57.00
2018-10-06T00:43:38.911Z,57.10
2018-10-06T00:44:44.200Z,57.00
2018-10-06T00:45:49.450Z,56.90
2018-10-06T00:46:54.819Z,56.90
2018-10-06T00:48:00.074Z,57.00
2018-10-06T00:49:05.372Z,57.00
2018-10-06T00:50:10.606Z,57.00
2018-10-06T00:51:15.839Z,57.00
2018-10-06T00:52:21.814Z,56.90
2018-10-06T00:53:27.010Z,57.00
2018-10-06T00:54:32.982Z,56.90
2018-10-06T00:55:38.926Z,57.10
2018-10-06T00:56:44.239Z,56.90
2018-10-06T00:57:49.485Z,56.90
2018-10-06T00:58:54.793Z,56.90
2018-10-06T01:00:00.094Z,56.90
2018-10-06T01:01:06.059Z,57.60
2018-10-06T01:02:11.426Z,57.10
2018-10-06T01:03:17.373Z,56.90
2018-10-06T01:04:22.630Z,56.90
2018-10-06T01:05:27.840Z,56.90
2018-10-06T01:06:33.039Z,56.90
2018-10-06T01:07:38.951Z,56.90
2018-10-06T01:08:44.174Z,57.00
2018-10-06T01:09:49.448Z,56.90
2018-10-06T01:10:54.670Z,56.90
2018-10-06T01:11:59.923Z,56.90
2018-10-06T01:13:05.234Z,56.90
2018-10-06T01:14:10.526Z,56.90
2018-10-06T01:15:15.791Z,56.90
2018-10-06T01:16:21.037Z,56.90
2018-10-06T01:17:26.346Z,56.90
2018-10-06T01:18:31.596Z,56.90
2018-10-06T01:19:36.836Z,56.90
2018-10-06T01:20:42.104Z,56.90
2018-10-06T01:21:47.315Z,56.90
2018-10-06T01:22:52.685Z,56.90
2018-10-06T01:23:57.926Z,56.90
2018-10-06T01:25:03.949Z,56.90
2018-10-06T01:26:09.436Z,56.90
2018-10-06T01:27:14.706Z,56.90
2018-10-06T01:28:19.921Z,56.90
2018-10-06T01:29:25.140Z,56.90
2018-10-06T01:30:30.418Z,56.90
2018-10-06T01:31:36.476Z,56.90
2018-10-06T01:32:41.732Z,56.80
2018-10-06T01:33:46.868Z,56.90
2018-10-06T01:34:52.152Z,56.90
2018-10-06T01:35:57.339Z,56.90
2018-10-06T01:37:02.692Z,56.90
2018-10-06T01:38:07.947Z,56.90
2018-10-06T01:39:13.191Z,56.90
2018-10-06T01:40:18.417Z,56.90
2018-10-06T01:41:24.503Z,56.90
2018-10-06T01:42:29.779Z,56.90
2018-10-06T01:43:35.029Z,56.90
2018-10-06T01:44:40.279Z,56.80
2018-10-06T01:45:45.652Z,56.90
2018-10-06T01:46:50.922Z,57.00
2018-10-06T01:47:56.196Z,56.90
2018-10-06T01:49:01.508Z,56.80
2018-10-06T01:50:07.473Z,56.80
2018-10-06T01:51:12.866Z,56.80
2018-10-06T01:52:18.089Z,56.90
2018-10-06T01:53:24.212Z,56.80
2018-10-06T01:54:30.333Z,56.80
2018-10-06T01:55:35.581Z,56.80
2018-10-06T01:56:40.853Z,56.80
2018-10-06T01:57:47.079Z,56.80
2018-10-06T01:58:53.307Z,56.90
2018-10-06T01:59:58.582Z,56.90
2018-10-06T02:01:03.858Z,56.80
2018-10-06T02:02:09.126Z,56.80
2018-10-06T02:03:14.474Z,56.80
2018-10-06T02:04:19.758Z,56.80
2018-10-06T02:05:25.038Z,56.90
2018-10-06T02:06:30.294Z,56.80
2018-10-06T02:07:35.580Z,56.80
2018-10-06T02:08:40.854Z,56.70
2018-10-06T02:09:46.076Z,56.80
2018-10-06T02:10:52.197Z,56.80
2018-10-06T02:11:58.351Z,56.80
2018-10-06T02:13:04.556Z,56.80
2018-10-06T02:14:09.889Z,56.90
2018-10-06T02:15:15.199Z,56.80
2018-10-06T02:16:20.474Z,56.70
2018-10-06T02:17:25.761Z,56.80
2018-10-06T02:18:31.038Z,56.70
2018-10-06T02:19:36.343Z,56.80
2018-10-06T02:20:41.625Z,56.80
2018-10-06T02:21:46.923Z,56.80
2018-10-06T02:22:52.236Z,56.80
2018-10-06T02:23:57.524Z,56.70
2018-10-06T02:25:02.835Z,56.70
2018-10-06T02:26:08.995Z,56.80
2018-10-06T02:27:14.281Z,56.80
2018-10-06T02:28:19.861Z,56.80
2018-10-06T02:29:25.993Z,56.70
2018-10-06T02:30:31.359Z,56.70
2018-10-06T02:31:36.708Z,56.70
2018-10-06T02:32:42.001Z,56.70
2018-10-06T02:33:47.313Z,56.70
2018-10-06T02:34:52.569Z,56.70
2018-10-06T02:35:58.621Z,57.40
2018-10-06T02:37:03.966Z,56.70
2018-10-06T02:38:10.057Z,56.70
2018-10-06T02:39:15.309Z,56.70
2018-10-06T02:40:20.534Z,56.70
2018-10-06T02:41:25.784Z,56.70
2018-10-06T02:42:31.834Z,56.70
2018-10-06T02:43:37.069Z,56.70
2018-10-06T02:44:42.312Z,56.70
2018-10-06T02:45:47.663Z,56.70
2018-10-06T02:46:52.981Z,56.70
2018-10-06T02:47:58.295Z,56.70
2018-10-06T02:49:03.658Z,56.70
2018-10-06T02:50:09.013Z,57.30
2018-10-06T02:51:14.434Z,56.70
2018-10-06T02:52:19.663Z,56.60
2018-10-06T02:53:24.926Z,56.60
2018-10-06T02:54:30.957Z,56.70
2018-10-06T02:55:36.243Z,56.70
2018-10-06T02:56:41.489Z,56.60
2018-10-06T02:57:47.872Z,56.60
2018-10-06T02:58:53.841Z,56.70
2018-10-06T02:59:59.179Z,56.60
2018-10-06T03:01:04.502Z,56.70
2018-10-06T03:02:10.526Z,56.70
2018-10-06T03:03:15.819Z,56.60
2018-10-06T03:04:21.859Z,56.60
2018-10-06T03:05:27.128Z,56.60
2018-10-06T03:06:32.394Z,56.60
2018-10-06T03:07:37.641Z,56.60
2018-10-06T03:08:42.885Z,56.60
2018-10-06T03:09:48.909Z,56.60
2018-10-06T03:10:54.194Z,56.60
2018-10-06T03:11:59.439Z,56.60
2018-10-06T03:13:04.689Z,56.60
2018-10-06T03:14:09.934Z,56.60
2018-10-06T03:15:16.052Z,56.60
2018-10-06T03:16:22.129Z,56.60
2018-10-06T03:17:27.429Z,56.60
2018-10-06T03:18:32.705Z,56.60
2018-10-06T03:19:39.600Z,56.60
2018-10-06T03:20:44.837Z,56.70
2018-10-06T03:21:50.108Z,56.60
2018-10-06T03:22:55.375Z,56.60
2018-10-06T03:24:00.632Z,56.60
2018-10-06T03:25:05.916Z,57.30
2018-10-06T03:26:11.145Z,56.60
2018-10-06T03:27:17.231Z,56.60
2018-10-06T03:28:22.547Z,56.60
2018-10-06T03:29:28.685Z,56.60
2018-10-06T03:30:33.967Z,57.20
2018-10-06T03:31:39.241Z,56.60
2018-10-06T03:32:44.488Z,56.60
2018-10-06T03:33:49.738Z,56.60
2018-10-06T03:34:55.027Z,56.60
2018-10-06T03:36:00.396Z,56.60
2018-10-06T03:37:05.590Z,56.60
2018-10-06T03:38:10.922Z,56.60
2018-10-06T03:39:17.118Z,56.60
2018-10-06T03:40:22.339Z,56.60
2018-10-06T03:41:28.458Z,56.60
2018-10-06T03:42:33.699Z,56.60
2018-10-06T03:43:38.948Z,56.60
2018-10-06T03:44:44.176Z,56.60
2018-10-06T03:45:49.434Z,56.60
2018-10-06T03:46:54.770Z,56.60
2018-10-06T03:48:00.045Z,56.50
2018-10-06T03:49:06.131Z,56.60
2018-10-06T03:50:11.418Z,56.60
2018-10-06T03:51:16.644Z,56.50
2018-10-06T03:52:22.723Z,56.60
2018-10-06T03:53:27.990Z,56.60
2018-10-06T03:54:33.273Z,56.50
2018-10-06T03:55:39.305Z,56.50
2018-10-06T03:56:45.372Z,56.50
2018-10-06T03:57:50.649Z,56.50
2018-10-06T03:58:56.792Z,56.50
2018-10-06T04:00:02.891Z,56.50
2018-10-06T04:01:08.264Z,56.50
2018-10-06T04:02:13.538Z,56.50
2018-10-06T04:03:19.602Z,56.50
2018-10-06T04:04:24.930Z,56.60
2018-10-06T04:05:30.970Z,56.60
2018-10-06T04:06:37.048Z,56.50
2018-10-06T04:07:42.339Z,56.50
2018-10-06T04:08:47.667Z,56.50
2018-10-06T04:09:53.698Z,56.50
2018-10-06T04:10:59.771Z,56.50
2018-10-06T04:12:05.906Z,56.50
2018-10-06T04:13:11.150Z,56.50
2018-10-06T04:14:16.330Z,56.50
2018-10-06T04:15:22.394Z,56.50
2018-10-06T04:16:27.682Z,56.50
2018-10-06T04:17:32.906Z,57.10
2018-10-06T04:18:38.162Z,56.50
2018-10-06T04:19:43.408Z,56.50
2018-10-06T04:20:48.658Z,56.50
2018-10-06T04:21:53.865Z,56.40
2018-10-06T04:22:59.036Z,56.50
2018-10-06T04:24:04.280Z,56.40
2018-10-06T04:25:09.554Z,56.50
2018-10-06T04:26:14.801Z,56.50
2018-10-06T04:27:20.796Z,56.40
2018-10-06T04:28:26.816Z,57.10
2018-10-06T04:29:32.104Z,56.50
2018-10-06T04:30:38.055Z,56.40
2018-10-06T04:31:43.366Z,56.40
2018-10-06T04:32:48.594Z,56.40
2018-10-06T04:33:53.846Z,56.40
2018-10-06T04:34:59.072Z,56.40
2018-10-06T04:36:05.090Z,56.40
2018-10-06T04:37:10.375Z,56.40
2018-10-06T04:38:16.393Z,56.40
2018-10-06T04:39:21.629Z,56.40
2018-10-06T04:40:26.858Z,56.40
2018-10-06T04:41:32.153Z,56.40
2018-10-06T04:42:37.417Z,56.50
2018-10-06T04:43:42.645Z,56.40
2018-10-06T04:44:47.919Z,56.40
2018-10-06T04:45:53.231Z,57.10
2018-10-06T04:46:58.543Z,56.50
2018-10-06T04:48:03.794Z,56.40
2018-10-06T04:49:09.104Z,56.40
2018-10-06T04:50:15.107Z,56.40
2018-10-06T04:51:20.337Z,56.40
2018-10-06T04:52:25.628Z,56.50
2018-10-06T04:53:30.835Z,56.40
2018-10-06T04:54:36.110Z,56.40
2018-10-06T04:55:41.383Z,56.40
2018-10-06T04:56:46.710Z,56.40
2018-10-06T04:57:52.106Z,56.40
2018-10-06T04:58:57.388Z,56.40
2018-10-06T05:00:02.689Z,56.40
2018-10-06T05:01:07.958Z,56.40
2018-10-06T05:02:13.149Z,56.40
2018-10-06T05:03:19.343Z,56.40
2018-10-06T05:04:24.651Z,56.40
2018-10-06T05:05:32.349Z,56.40
2018-10-06T05:06:38.500Z,56.40
2018-10-06T05:07:44.547Z,56.40
2018-10-06T05:08:49.949Z,57.10
2018-10-06T05:09:55.211Z,56.50
2018-10-06T05:11:00.391Z,56.50
2018-10-06T05:12:05.692Z,56.50
2018-10-06T05:13:10.868Z,56.50
2018-10-06T05:14:16.181Z,56.60
2018-10-06T05:15:21.404Z,56.60
2018-10-06T05:16:27.442Z,56.70
2018-10-06T05:17:32.741Z,56.70
2018-10-06T05:18:37.955Z,56.70
2018-10-06T05:19:43.233Z,56.70
2018-10-06T05:20:48.467Z,56.70
2018-10-06T05:21:53.657Z,56.70
2018-10-06T05:22:58.920Z,56.60
2018-10-06T05:24:04.924Z,56.70
2018-10-06T05:25:10.121Z,56.70
2018-10-06T05:26:16.166Z,56.60
2018-10-06T05:27:21.500Z,56.70
2018-10-06T05:28:26.755Z,56.80
2018-10-06T05:29:32.080Z,56.70
2018-10-06T05:30:37.471Z,56.60
2018-10-06T05:31:42.824Z,56.60
2018-10-06T05:32:48.175Z,56.70
2018-10-06T05:33:53.487Z,56.70
2018-10-06T05:34:58.693Z,56.70
2018-10-06T05:36:04.813Z,56.70
2018-10-06T05:37:10.119Z,57.00
2018-10-06T05:38:15.407Z,57.10
2018-10-06T05:39:21.382Z,57.40
2018-10-06T05:40:26.645Z,57.30
2018-10-06T05:41:31.924Z,57.20
2018-10-06T05:42:37.972Z,57.20
2018-10-06T05:43:43.250Z,57.30
2018-10-06T05:44:48.501Z,57.30
2018-10-06T05:45:54.516Z,57.30
2018-10-06T05:46:59.846Z,57.30
2018-10-06T05:48:05.982Z,57.40
2018-10-06T05:49:11.245Z,57.40
2018-10-06T05:50:17.250Z,57.40
2018-10-06T05:51:22.873Z,57.40
2018-10-06T05:52:28.202Z,57.50
2018-10-06T05:53:33.458Z,57.40
2018-10-06T05:54:38.927Z,57.30
2018-10-06T05:55:45.017Z,57.30
2018-10-06T05:56:50.515Z,57.30
2018-10-06T05:57:55.801Z,57.40
2018-10-06T05:59:01.136Z,57.40
2018-10-06T06:00:06.344Z,57.40
2018-10-06T06:01:11.612Z,57.50
2018-10-06T06:02:21.698Z,57.40
2018-10-06T06:03:31.634Z,57.40
2018-10-06T06:04:41.298Z,57.50
2018-10-06T06:05:51.161Z,57.50
2018-10-06T06:07:00.353Z,57.50
2018-10-06T06:08:09.891Z,57.60
2018-10-06T06:09:17.618Z,57.50
2018-10-06T06:10:26.937Z,57.50
2018-10-06T06:11:35.821Z,57.60
2018-10-06T06:12:44.683Z,57.60
2018-10-06T06:13:53.751Z,57.60
2018-10-06T06:15:04.245Z,58.30
2018-10-06T06:16:09.630Z,57.70
2018-10-06T06:17:14.879Z,57.70
2018-10-06T06:18:21.090Z,57.80
2018-10-06T06:19:27.226Z,57.70
2018-10-06T06:20:33.416Z,57.80
2018-10-06T06:21:39.646Z,57.60
2018-10-06T06:22:46.614Z,57.80
2018-10-06T06:23:53.149Z,57.80
2018-10-06T06:25:00.253Z,57.80
2018-10-06T06:26:07.381Z,57.80
2018-10-06T06:27:13.675Z,57.70
2018-10-06T06:28:19.928Z,57.70
2018-10-06T06:29:26.315Z,57.80
2018-10-06T06:30:32.704Z,57.70
2018-10-06T06:31:38.952Z,57.70
2018-10-06T06:32:45.353Z,57.80
2018-10-06T06:33:51.713Z,57.80
2018-10-06T06:34:58.044Z,57.80
2018-10-06T06:36:04.400Z,57.80
2018-10-06T06:37:11.413Z,57.90
2018-10-06T06:38:17.765Z,57.90
2018-10-06T06:39:23.976Z,57.80
2018-10-06T06:40:30.283Z,57.70
2018-10-06T06:41:37.193Z,57.60
2018-10-06T06:42:43.687Z,57.70
2018-10-06T06:43:49.117Z,57.70
2018-10-06T06:44:54.330Z,57.60
2018-10-06T06:46:00.445Z,57.70
2018-10-06T06:47:05.783Z,57.70
2018-10-06T06:48:11.063Z,57.70
2018-10-06T06:49:16.312Z,57.80
2018-10-06T06:50:21.880Z,57.90
2018-10-06T06:51:27.920Z,57.90
2018-10-06T06:52:33.393Z,57.90
2018-10-06T06:53:38.666Z,57.90
2018-10-06T06:54:43.943Z,57.90
2018-10-06T06:55:49.229Z,57.70
2018-10-06T06:56:54.578Z,57.60
2018-10-06T06:58:00.731Z,57.50
2018-10-06T06:59:06.850Z,57.50
2018-10-06T07:00:12.112Z,57.40
2018-10-06T07:01:24.432Z,57.30
2018-10-06T07:02:34.307Z,57.30
2018-10-06T07:03:44.183Z,57.20
2018-10-06T07:04:54.095Z,57.30
2018-10-06T07:06:06.452Z,57.20
2018-10-06T07:07:16.008Z,57.20
2018-10-06T07:08:27.976Z,57.00
2018-10-06T07:09:37.598Z,57.00
2018-10-06T07:10:48.464Z,56.90
2018-10-06T07:11:59.926Z,56.90
2018-10-06T07:13:05.442Z,56.90
2018-10-06T07:14:10.732Z,56.80
2018-10-06T07:15:16.022Z,56.80
2018-10-06T07:16:22.202Z,56.90
2018-10-06T07:17:28.178Z,56.90
2018-10-06T07:18:34.472Z,56.90
2018-10-06T07:19:40.712Z,56.90
2018-10-06T07:20:45.978Z,57.00
2018-10-06T07:21:51.206Z,57.00
2018-10-06T07:22:57.402Z,56.90
2018-10-06T07:24:03.464Z,56.90
2018-10-06T07:25:09.600Z,56.90
2018-10-06T07:26:14.830Z,56.80
2018-10-06T07:27:20.959Z,56.70
2018-10-06T07:28:26.209Z,56.70
2018-10-06T07:29:31.618Z,56.60
2018-10-06T07:30:37.004Z,56.60
2018-10-06T07:31:42.245Z,56.50
2018-10-06T07:32:47.699Z,57.10
2018-10-06T07:33:53.713Z,56.40
2018-10-06T07:34:59.140Z,56.40
2018-10-06T07:36:05.152Z,56.30
2018-10-06T07:37:10.564Z,56.30
2018-10-06T07:38:15.944Z,56.50
2018-10-06T07:39:21.999Z,56.40
2018-10-06T07:40:27.432Z,56.40
2018-10-06T07:41:33.508Z,56.40
2018-10-06T07:42:38.876Z,56.20
2018-10-06T07:43:44.254Z,56.30
2018-10-06T07:44:50.295Z,56.10
2018-10-06T07:45:55.718Z,56.00
2018-10-06T07:47:01.819Z,55.70
2018-10-06T07:48:07.186Z,55.60
2018-10-06T07:49:12.505Z,55.40
2018-10-06T07:50:17.936Z,55.40
2018-10-06T07:51:23.451Z,55.40
2018-10-06T07:52:28.740Z,55.50
2018-10-06T07:53:34.281Z,55.60
2018-10-06T07:54:40.534Z,55.40
2018-10-06T07:55:46.007Z,55.40
2018-10-06T07:56:51.494Z,55.40
2018-10-06T07:57:57.036Z,55.40
2018-10-06T07:59:02.440Z,55.40
2018-10-06T08:00:07.829Z,55.30
2018-10-06T08:01:13.340Z,55.30
2018-10-06T08:02:19.061Z,55.20
2018-10-06T08:03:24.563Z,55.20
2018-10-06T08:04:29.909Z,55.10
2018-10-06T08:05:36.108Z,55.00
2018-10-06T08:06:41.542Z,55.00
2018-10-06T08:07:46.844Z,54.90
2018-10-06T08:08:52.270Z,54.90
2018-10-06T08:09:57.640Z,54.90
2018-10-06T08:11:03.887Z,54.90
2018-10-06T08:12:10.059Z,54.90
2018-10-06T08:13:15.349Z,54.80
2018-10-06T08:14:21.554Z,54.80
2018-10-06T08:15:26.957Z,54.90
2018-10-06T08:16:33.161Z,54.90
2018-10-06T08:17:38.440Z,54.90
2018-10-06T08:18:46.050Z,54.90
2018-10-06T08:19:52.036Z,54.90
2018-10-06T08:20:58.395Z,54.90
2018-10-06T08:22:04.432Z,55.00
2018-10-06T08:23:11.444Z,55.00
2018-10-06T08:24:16.775Z,55.20
2018-10-06T08:25:23.305Z,55.00
2018-10-06T08:26:28.670Z,55.10
2018-10-06T08:27:35.085Z,55.20
2018-10-06T08:28:40.381Z,55.20
2018-10-06T08:29:45.743Z,55.20
2018-10-06T08:30:51.844Z,55.20
2018-10-06T08:31:57.142Z,55.20
2018-10-06T08:33:03.562Z,55.20
2018-10-06T08:34:08.985Z,55.20
2018-10-06T08:35:14.292Z,55.90
2018-10-06T08:36:20.979Z,55.20
2018-10-06T08:37:27.233Z,55.20
2018-10-06T08:38:32.592Z,55.20
2018-10-06T08:39:44.026Z,55.10
2018-10-06T08:40:52.884Z,55.30
2018-10-06T08:41:58.973Z,55.80
2018-10-06T08:43:04.634Z,55.60
2018-10-06T08:44:11.016Z,55.40
2018-10-06T08:45:58.742Z,55.50
2018-10-06T08:47:06.186Z,55.50
2018-10-06T08:48:11.840Z,55.60
2018-10-06T08:49:18.736Z,55.70
2018-10-06T08:50:24.500Z,55.70
2018-10-06T08:51:31.625Z,55.80
2018-10-06T08:52:37.058Z,56.00
2018-10-06T08:53:45.174Z,56.10
2018-10-06T08:54:54.740Z,56.00
2018-10-06T08:57:17.453Z,56.10
2018-10-06T08:58:24.743Z,56.20
2018-10-06T08:59:30.301Z,56.40
2018-10-06T09:00:36.203Z,56.40
2018-10-06T09:01:41.849Z,56.40
2018-10-06T09:02:47.468Z,56.60
2018-10-06T09:03:58.994Z,56.60
2018-10-06T09:05:05.048Z,56.60
2018-10-06T09:06:11.077Z,56.60
2018-10-06T09:07:16.730Z,56.70
2018-10-06T09:08:22.887Z,56.70
2018-10-06T09:09:28.427Z,56.70
2018-10-06T09:10:34.106Z,56.70
2018-10-06T09:11:41.996Z,56.70
2018-10-06T09:13:16.474Z,56.60
2018-10-06T09:14:27.400Z,56.50
2018-10-06T09:15:33.074Z,56.50
2018-10-06T09:16:38.469Z,56.50
2018-10-06T09:17:44.035Z,56.40
2018-10-06T09:18:56.108Z,56.40
2018-10-06T09:20:01.686Z,56.30
2018-10-06T09:21:07.196Z,56.30
2018-10-06T09:22:13.024Z,56.30
2018-10-06T09:23:21.046Z,56.30
2018-10-06T09:24:26.795Z,56.30
2018-10-06T09:25:36.369Z,56.20
2018-10-06T09:27:02.162Z,56.30
2018-10-06T09:28:08.968Z,56.40
2018-10-06T09:29:27.364Z,56.40
2018-10-06T09:30:45.946Z,56.30
2018-10-06T09:31:57.834Z,56.30
2018-10-06T09:33:04.125Z,56.20
2018-10-06T09:34:09.439Z,56.30
2018-10-06T09:35:15.354Z,56.20
2018-10-06T09:36:46.089Z,56.20
2018-10-06T09:37:52.383Z,56.20
2018-10-06T09:39:01.938Z,56.20
2018-10-06T09:40:07.395Z,56.20
2018-10-06T09:41:13.132Z,56.10
2018-10-06T09:42:18.850Z,56.10
2018-10-06T09:43:51.785Z,56.10
2018-10-06T09:44:58.000Z,56.10
2018-10-06T09:46:03.442Z,56.10
2018-10-06T09:47:10.312Z,56.10
2018-10-06T09:48:40.549Z,56.10
2018-10-06T09:49:47.697Z,56.30
2018-10-06T09:50:54.253Z,56.70
2018-10-06T09:52:08.747Z,57.10
2018-10-06T09:53:14.489Z,57.40
2018-10-06T09:54:20.412Z,57.60
2018-10-06T09:55:25.733Z,57.60
2018-10-06T09:56:31.921Z,57.60
2018-10-06T09:57:37.310Z,57.50
2018-10-06T09:58:43.338Z,57.50
2018-10-06T09:59:49.649Z,58.10
2018-10-06T10:00:55.907Z,57.50
2018-10-06T10:02:01.632Z,57.50
2018-10-06T10:03:07.002Z,57.50
2018-10-06T10:04:12.278Z,57.50
2018-10-06T10:05:18.473Z,57.50
2018-10-06T10:06:23.789Z,57.70
2018-10-06T10:07:29.991Z,57.70
2018-10-06T10:08:35.248Z,57.80
2018-10-06T10:09:40.630Z,57.90
2018-10-06T10:10:46.031Z,58.00
2018-10-06T10:11:51.347Z,58.00
2018-10-06T10:12:57.455Z,58.00
2018-10-06T10:14:02.788Z,58.00
2018-10-06T10:15:08.098Z,58.00
2018-10-06T10:16:13.428Z,57.80
2018-10-06T10:17:18.843Z,57.70
2018-10-06T10:18:24.267Z,57.60
2018-10-06T10:19:30.321Z,57.50
2018-10-06T10:20:35.636Z,57.40
2018-10-06T10:21:40.968Z,57.40
2018-10-06T10:22:46.511Z,57.30
2018-10-06T10:23:52.586Z,57.30
2018-10-06T10:24:59.159Z,57.40
2018-10-06T10:26:04.622Z,57.20
2018-10-06T10:27:10.688Z,57.20
2018-10-06T10:28:21.600Z,56.90
2018-10-06T10:29:27.472Z,56.20
2018-10-06T10:30:32.911Z,55.60
2018-10-06T10:31:39.283Z,55.30
2018-10-06T10:32:45.463Z,54.90
2018-10-06T10:33:50.781Z,54.40
2018-10-06T10:34:56.511Z,54.20
2018-10-06T10:36:02.040Z,54.00
2018-10-06T10:37:08.259Z,53.70
2018-10-06T10:38:13.726Z,53.70
2018-10-06T10:39:19.222Z,53.60
2018-10-06T10:40:25.396Z,53.50
2018-10-06T10:41:30.633Z,53.60
2018-10-06T10:42:35.874Z,53.60
2018-10-06T10:43:41.324Z,53.50
2018-10-06T10:44:46.938Z,53.50
2018-10-06T10:45:52.277Z,53.50
2018-10-06T10:46:58.275Z,53.50
2018-10-06T10:48:03.673Z,53.50
2018-10-06T10:49:09.076Z,53.50
2018-10-06T10:50:15.149Z,53.50
2018-10-06T10:51:21.092Z,53.50
2018-10-06T10:52:26.491Z,53.50
2018-10-06T10:53:32.437Z,53.60
2018-10-06T10:54:37.796Z,53.30
2018-10-06T10:55:43.261Z,53.30
2018-10-06T10:56:48.591Z,53.30
2018-10-06T10:57:54.914Z,53.30
2018-10-06T10:59:00.124Z,53.20
2018-10-06T11:00:05.796Z,53.20
2018-10-06T11:01:11.670Z,53.20
2018-10-06T11:02:17.255Z,53.10
2018-10-06T11:03:22.736Z,52.90
2018-10-06T11:04:28.686Z,52.90
2018-10-06T11:05:33.985Z,52.80
2018-10-06T11:06:39.317Z,52.80
2018-10-06T11:07:45.587Z,52.70
2018-10-06T11:08:50.905Z,52.70
2018-10-06T11:09:56.190Z,52.70
2018-10-06T11:11:01.411Z,52.60
2018-10-06T11:12:06.760Z,52.90
2018-10-06T11:13:12.016Z,52.90
2018-10-06T11:14:18.351Z,53.10
2018-10-06T11:15:23.630Z,53.10
2018-10-06T11:16:29.045Z,53.10
2018-10-06T11:17:34.338Z,53.50
2018-10-06T11:18:40.389Z,53.50
2018-10-06T11:19:46.594Z,53.40
2018-10-06T11:20:53.018Z,53.30
2018-10-06T11:21:58.943Z,53.20
2018-10-06T11:23:04.313Z,53.20
2018-10-06T11:24:10.413Z,53.20
2018-10-06T11:25:15.637Z,53.10
2018-10-06T11:26:21.251Z,53.20
2018-10-06T11:27:26.706Z,53.20
2018-10-06T11:28:32.754Z,53.10
2018-10-06T11:29:38.906Z,53.20
2018-10-06T11:30:44.196Z,53.20
2018-10-06T11:31:49.591Z,53.20
2018-10-06T11:32:55.617Z,53.40
2018-10-06T11:34:01.785Z,53.50
2018-10-06T11:35:07.871Z,53.50
2018-10-06T11:36:13.273Z,53.60
2018-10-06T11:37:18.606Z,53.80
2018-10-06T11:38:29.170Z,53.70
2018-10-06T11:39:35.307Z,53.60
2018-10-06T11:40:41.822Z,53.60
2018-10-06T11:41:48.067Z,53.60
2018-10-06T11:42:53.533Z,53.60
2018-10-06T11:43:59.678Z,53.60
2018-10-06T11:45:05.118Z,53.60
2018-10-06T11:46:11.365Z,53.40
2018-10-06T11:47:16.957Z,53.30
2018-10-06T11:48:23.105Z,53.30
2018-10-06T11:49:28.487Z,53.30
2018-10-06T11:50:33.873Z,53.50
2018-10-06T11:51:40.127Z,53.50
2018-10-06T11:52:45.857Z,53.50
2018-10-06T11:53:51.480Z,53.50
2018-10-06T11:54:56.886Z,53.30
2018-10-06T11:56:03.169Z,53.20
2018-10-06T11:57:08.499Z,53.10
2018-10-06T11:58:14.746Z,53.20
2018-10-06T11:59:19.979Z,53.20
2018-10-06T12:00:26.272Z,53.00
2018-10-06T12:01:31.728Z,53.00
2018-10-06T12:02:37.007Z,53.10
2018-10-06T12:03:42.346Z,53.10
2018-10-06T12:04:49.023Z,53.00
2018-10-06T12:05:54.582Z,53.00
2018-10-06T12:06:59.983Z,53.10
2018-10-06T12:08:05.456Z,53.10
2018-10-06T12:09:11.554Z,53.20
2018-10-06T12:10:17.272Z,53.20
2018-10-06T12:11:23.624Z,53.30
2018-10-06T12:12:28.979Z,53.30
2018-10-06T12:13:34.446Z,53.20
2018-10-06T12:14:40.694Z,53.20
2018-10-06T12:15:46.218Z,53.30
2018-10-06T12:16:51.613Z,53.30
2018-10-06T12:17:56.998Z,53.40
2018-10-06T12:19:02.383Z,53.40
2018-10-06T12:20:07.730Z,53.20
2018-10-06T12:21:13.061Z,53.30
2018-10-06T12:22:18.618Z,53.20
2018-10-06T12:23:24.076Z,53.20
2018-10-06T12:24:29.348Z,53.00
2018-10-06T12:25:34.778Z,53.10
2018-10-06T12:26:40.049Z,53.90
2018-10-06T12:27:45.377Z,53.40
2018-10-06T12:28:51.684Z,53.20
2018-10-06T12:29:56.965Z,53.10
2018-10-06T12:31:02.393Z,53.20
2018-10-06T12:32:08.556Z,53.10
2018-10-06T12:33:13.888Z,53.10
2018-10-06T12:34:19.973Z,53.10
2018-10-06T12:35:25.384Z,53.20
2018-10-06T12:36:30.566Z,53.20
2018-10-06T12:37:36.722Z,53.20
2018-10-06T12:38:42.766Z,53.00
2018-10-06T12:39:48.955Z,53.10
2018-10-06T12:40:55.025Z,53.20
2018-10-06T12:42:00.329Z,53.10
2018-10-06T12:43:05.645Z,52.50
2018-10-06T12:44:10.876Z,52.30
2018-10-06T12:45:16.987Z,52.10
2018-10-06T12:46:22.611Z,52.20
2018-10-06T12:47:28.647Z,52.00
2018-10-06T12:48:34.032Z,51.50
2018-10-06T12:49:39.274Z,51.50
2018-10-06T12:50:45.270Z,51.40
2018-10-06T12:51:50.669Z,51.20
2018-10-06T12:52:55.934Z,51.30
2018-10-06T12:54:01.363Z,51.40
2018-10-06T12:55:06.631Z,51.40
2018-10-06T12:56:12.752Z,51.30
2018-10-06T12:57:18.338Z,51.40
2018-10-06T12:58:24.939Z,51.50
2018-10-06T12:59:31.782Z,51.60
2018-10-06T13:00:37.752Z,51.70
2018-10-06T13:01:43.031Z,51.80
2018-10-06T13:02:48.375Z,51.80
2018-10-06T13:03:54.517Z,52.00
2018-10-06T13:04:59.750Z,52.10
2018-10-06T13:06:05.480Z,52.10
2018-10-06T13:07:12.910Z,52.10
2018-10-06T13:08:19.132Z,52.00
2018-10-06T13:09:25.356Z,51.80
2018-10-06T13:10:30.693Z,51.70
2018-10-06T13:11:36.145Z,51.70
2018-10-06T13:12:41.382Z,51.50
2018-10-06T13:13:46.673Z,51.40
2018-10-06T13:14:52.703Z,51.20
2018-10-06T13:15:58.139Z,51.00
2018-10-06T13:17:03.527Z,50.90
2018-10-06T13:18:09.835Z,50.90
2018-10-06T13:19:16.092Z,50.90
2018-10-06T13:20:22.448Z,50.90
2018-10-06T13:21:28.188Z,50.90
2018-10-06T13:22:33.678Z,50.90
2018-10-06T13:23:39.760Z,51.10
2018-10-06T13:24:46.077Z,51.10
2018-10-06T13:25:51.404Z,51.10
2018-10-06T13:26:56.912Z,51.30
2018-10-06T13:28:03.270Z,51.40
2018-10-06T13:29:08.774Z,51.50
2018-10-06T13:30:14.255Z,51.40
2018-10-06T13:31:19.864Z,51.30
2018-10-06T13:32:26.725Z,51.20
2018-10-06T13:33:32.250Z,51.20
2018-10-06T13:34:38.516Z,51.30
2018-10-06T13:35:44.926Z,51.40
2018-10-06T13:36:50.720Z,51.50
2018-10-06T13:37:57.102Z,51.50
2018-10-06T13:39:02.528Z,51.60
2018-10-06T13:40:08.633Z,51.80
2018-10-06T13:41:14.220Z,51.90
2018-10-06T13:42:19.746Z,52.20
2018-10-06T13:43:25.654Z,52.30
2018-10-06T13:44:31.971Z,52.50
2018-10-06T13:45:37.395Z,52.40
2018-10-06T13:46:42.864Z,52.10
2018-10-06T13:47:48.273Z,52.10
2018-10-06T13:48:53.672Z,52.00
2018-10-06T13:49:58.952Z,52.10
2018-10-06T13:51:04.268Z,52.20
2018-10-06T13:52:09.580Z,52.10
2018-10-06T13:53:14.968Z,52.10
2018-10-06T13:54:20.282Z,52.10
2018-10-06T13:55:25.633Z,52.20
2018-10-06T13:56:31.041Z,51.80
2018-10-06T13:57:36.321Z,51.70
2018-10-06T13:58:42.603Z,51.60
2018-10-06T13:59:47.841Z,51.80
2018-10-06T14:00:53.364Z,51.60
2018-10-06T14:01:58.712Z,51.40
2018-10-06T14:03:04.271Z,51.40
2018-10-06T14:04:09.780Z,51.30
2018-10-06T14:05:15.234Z,51.60
2018-10-06T14:06:20.958Z,51.50
2018-10-06T14:07:26.287Z,51.50
2018-10-06T14:08:31.596Z,51.60
2018-10-06T14:09:36.846Z,51.60
2018-10-06T14:10:42.388Z,51.60
2018-10-06T14:11:48.595Z,51.70